KPOU/POU METAR and TAF weather

Enter ICAO airport designator
Station Type Date Time Source
KPOU METAR 2022/06/27 16:53 UTC NOAA

KPOU 271653Z 23004KT 10SM FEW017 BKN035 OVC090 24/22 A2991 RMK AO2 RAB01E40 SLP125 P0003 T02440222


Station Type Date Time Source
KPOU Decoded METAR 2022/06/27 16:53 UTC NOAA

POUGHKEEPSIE DUTCHESS CTY, NY, United States (KPOU) 41-38N 073-53W 46M
Jun 27, 2022 - 12:53 PM EDT / 2022.06.27 1653 UTC
Wind: from the SW (230 degrees) at 5 MPH (4 KT):0
Visibility: 10 mile(s):0
Sky conditions: overcast
Precipitation last hour: 0.03 inches
Temperature: 75.9 F (24.4 C)
Dew Point: 72.0 F (22.2 C)
Relative Humidity: 87%
Pressure (altimeter): 29.91 in. Hg (1012 hPa)
ob: KPOU 271653Z 23004KT 10SM FEW017 BKN035 OVC090 24/22 A2991 RMK AO2 RAB01E40 SLP125 P0003 T02440222
cycle: 17

Station Type Date Time Source
KPOU TAF 2022/06/27 15:16 UTC NOAA

TAF
AMD KPOU 271513Z 2715/2812 21008KT P6SM VCSH BKN025 OVC050
TEMPO 2715/2718 2SM -RA BR BKN015 OVC025
FM271800 27007KT P6SM BKN035 BKN050
FM272100 29007KT P6SM SCT050
FM280000 32007KT P6SM SCT050
FM280400 35004KT P6SM SCT050

Example: see airport list